createdAt,value
2018-11-03T00:01:49.503Z,51.20
2018-11-03T00:04:17.097Z,51.20
2018-11-03T00:06:44.694Z,51.30
2018-11-03T00:09:13.063Z,51.20
2018-11-03T00:11:40.965Z,51.30
2018-11-03T00:14:09.600Z,51.40
2018-11-03T00:16:37.442Z,51.60
2018-11-03T00:19:05.211Z,51.60
2018-11-03T00:21:32.839Z,51.60
2018-11-03T00:24:00.769Z,51.40
2018-11-03T00:26:34.821Z,51.40
2018-11-03T00:29:02.406Z,51.20
2018-11-03T00:31:30.125Z,51.30
2018-11-03T00:33:57.822Z,51.20
2018-11-03T00:36:25.416Z,51.30
2018-11-03T00:38:52.985Z,51.30
2018-11-03T00:41:20.587Z,51.30
2018-11-03T00:43:48.178Z,51.30
2018-11-03T00:46:15.761Z,51.20
2018-11-03T00:48:43.443Z,51.20
2018-11-03T00:51:11.031Z,51.10
2018-11-03T00:53:38.628Z,51.20
2018-11-03T00:56:06.187Z,51.10
2018-11-03T00:58:33.785Z,51.10
2018-11-03T01:01:01.376Z,51.10
2018-11-03T01:03:29.044Z,51.10
2018-11-03T01:05:56.661Z,51.00
2018-11-03T01:08:24.231Z,50.90
2018-11-03T01:10:51.801Z,50.90
2018-11-03T01:13:19.390Z,51.00
2018-11-03T01:15:46.970Z,50.90
2018-11-03T01:18:14.569Z,50.90
2018-11-03T01:20:42.146Z,50.80
2018-11-03T01:23:09.743Z,50.80
2018-11-03T01:25:37.322Z,50.80
2018-11-03T01:28:04.894Z,50.90
2018-11-03T01:30:32.468Z,51.00
2018-11-03T01:33:00.074Z,51.10
2018-11-03T01:35:27.937Z,51.30
2018-11-03T01:37:55.527Z,51.10
2018-11-03T01:40:23.119Z,51.10
2018-11-03T01:42:50.736Z,51.00
2018-11-03T01:45:18.313Z,51.00
2018-11-03T01:47:45.878Z,50.90
2018-11-03T01:50:13.485Z,50.90
2018-11-03T01:52:41.681Z,50.80
2018-11-03T01:55:09.323Z,50.80
2018-11-03T01:57:37.638Z,50.80
2018-11-03T02:00:05.817Z,50.90
2018-11-03T02:02:33.396Z,50.80
2018-11-03T02:05:01.011Z,50.90
2018-11-03T02:07:28.855Z,50.80
2018-11-03T02:09:56.426Z,50.80
2018-11-03T02:12:23.993Z,50.80
2018-11-03T02:14:51.581Z,50.70
2018-11-03T02:17:19.291Z,50.60
2018-11-03T02:19:46.978Z,50.60
2018-11-03T02:22:14.540Z,50.50
2018-11-03T02:24:42.189Z,50.50
2018-11-03T02:27:09.758Z,50.50
2018-11-03T02:29:37.372Z,50.50
2018-11-03T02:32:05.149Z,50.50
2018-11-03T02:34:32.720Z,50.40
2018-11-03T02:37:00.316Z,50.50
2018-11-03T02:39:27.947Z,50.40
2018-11-03T02:41:55.502Z,50.50
2018-11-03T02:44:23.069Z,50.50
2018-11-03T02:46:50.651Z,50.70
2018-11-03T02:49:18.211Z,50.90
2018-11-03T02:51:45.821Z,51.00
2018-11-03T02:54:13.407Z,51.10
2018-11-03T02:56:40.972Z,51.10
2018-11-03T02:59:08.956Z,51.10
2018-11-03T03:01:36.535Z,51.10
2018-11-03T03:04:04.128Z,51.10
2018-11-03T03:06:31.727Z,51.10
2018-11-03T03:08:59.375Z,51.10
2018-11-03T03:11:26.973Z,50.90
2018-11-03T03:13:54.566Z,50.90
2018-11-03T03:16:22.152Z,50.80
2018-11-03T03:18:49.736Z,50.70
2018-11-03T03:21:17.338Z,50.80
2018-11-03T03:23:44.920Z,50.70
2018-11-03T03:26:12.765Z,50.70
2018-11-03T03:28:40.350Z,50.60
2018-11-03T03:31:08.063Z,50.50
2018-11-03T03:33:35.650Z,50.50
2018-11-03T03:36:03.263Z,50.40
2018-11-03T03:38:31.119Z,50.30
2018-11-03T03:40:58.850Z,50.40
2018-11-03T03:43:26.423Z,50.40
2018-11-03T03:45:54.007Z,50.40
2018-11-03T03:48:21.616Z,50.40
2018-11-03T03:50:49.201Z,50.40
2018-11-03T03:53:16.827Z,50.20
2018-11-03T03:55:44.427Z,50.40
2018-11-03T03:58:12.062Z,50.40
2018-11-03T04:00:39.656Z,50.30
2018-11-03T04:03:07.245Z,50.30
2018-11-03T04:05:34.855Z,50.60
2018-11-03T04:08:02.546Z,50.70
2018-11-03T04:10:30.137Z,50.60
2018-11-03T04:12:57.755Z,50.40
2018-11-03T04:15:25.394Z,50.40
2018-11-03T04:17:53.040Z,50.40
2018-11-03T04:20:20.743Z,50.30
2018-11-03T04:22:48.353Z,50.30
2018-11-03T04:25:15.944Z,51.00
2018-11-03T04:27:43.510Z,50.20
2018-11-03T04:30:12.798Z,50.20
2018-11-03T04:32:40.388Z,50.30
2018-11-03T04:35:08.254Z,50.10
2018-11-03T04:37:36.145Z,50.10
2018-11-03T04:40:04.073Z,50.00
2018-11-03T04:42:31.643Z,50.10
2018-11-03T04:44:59.253Z,50.00
2018-11-03T04:47:26.835Z,50.00
2018-11-03T04:49:54.419Z,50.00
2018-11-03T04:52:22.125Z,50.00
2018-11-03T04:54:49.720Z,50.10
2018-11-03T04:57:17.312Z,50.00
2018-11-03T04:59:44.982Z,50.00
2018-11-03T05:02:12.746Z,50.00
2018-11-03T05:04:40.334Z,50.00
2018-11-03T05:07:07.924Z,50.00
2018-11-03T05:09:35.512Z,50.40
2018-11-03T05:12:03.096Z,50.10
2018-11-03T05:14:30.678Z,50.20
2018-11-03T05:16:58.262Z,50.20
2018-11-03T05:19:25.832Z,50.30
2018-11-03T05:21:53.438Z,50.20
2018-11-03T05:24:21.207Z,50.10
2018-11-03T05:26:48.817Z,50.10
2018-11-03T05:29:16.403Z,50.10
2018-11-03T05:31:44.013Z,50.00
2018-11-03T05:34:11.833Z,50.00
2018-11-03T05:36:39.408Z,49.90
2018-11-03T05:39:07.943Z,49.90
2018-11-03T05:41:35.518Z,49.90
2018-11-03T05:44:03.116Z,49.80
2018-11-03T05:46:30.744Z,49.70
2018-11-03T05:48:58.568Z,49.70
2018-11-03T05:51:26.167Z,49.60
2018-11-03T05:53:53.773Z,49.50
2018-11-03T05:56:21.546Z,49.60
2018-11-03T05:58:49.131Z,49.50
2018-11-03T06:01:16.737Z,49.50
2018-11-03T06:03:44.359Z,49.50
2018-11-03T06:06:11.935Z,49.60
2018-11-03T06:08:39.524Z,49.50
2018-11-03T06:11:07.280Z,49.60
2018-11-03T06:13:34.909Z,49.60
2018-11-03T06:16:02.487Z,49.70
2018-11-03T06:18:30.114Z,49.80
2018-11-03T06:20:57.752Z,49.80
2018-11-03T06:23:25.428Z,50.00
2018-11-03T06:25:52.998Z,50.00
2018-11-03T06:28:20.613Z,50.00
2018-11-03T06:30:48.191Z,49.90
2018-11-03T06:33:15.800Z,49.90
2018-11-03T06:35:43.906Z,49.80
2018-11-03T06:38:11.664Z,50.00
2018-11-03T06:40:39.265Z,50.30
2018-11-03T06:43:06.893Z,50.10
2018-11-03T06:45:34.823Z,50.00
2018-11-03T06:48:02.439Z,49.80
2018-11-03T06:50:30.160Z,49.80
2018-11-03T06:52:57.775Z,49.70
2018-11-03T06:55:25.372Z,49.50
2018-11-03T06:57:52.984Z,49.50
2018-11-03T07:00:20.920Z,49.50
2018-11-03T07:02:48.602Z,49.50
2018-11-03T07:05:16.503Z,49.50
2018-11-03T07:07:44.273Z,49.50
2018-11-03T07:10:12.179Z,49.40
2018-11-03T07:12:40.518Z,49.40
2018-11-03T07:15:08.373Z,49.90
2018-11-03T07:17:36.571Z,49.70
2018-11-03T07:20:04.245Z,49.80
2018-11-03T07:22:31.956Z,49.70
2018-11-03T07:24:59.683Z,49.70
2018-11-03T07:27:27.280Z,49.70
2018-11-03T07:29:55.027Z,50.00
2018-11-03T07:32:23.548Z,50.00
2018-11-03T07:34:51.321Z,50.00
2018-11-03T07:37:18.909Z,50.10
2018-11-03T07:39:46.471Z,50.20
2018-11-03T07:42:15.244Z,50.20
2018-11-03T07:44:42.839Z,50.30
2018-11-03T07:47:10.417Z,50.40
2018-11-03T07:49:38.055Z,50.40
2018-11-03T07:52:05.631Z,50.20
2018-11-03T07:54:33.298Z,50.20
2018-11-03T07:57:00.889Z,50.20
2018-11-03T07:59:28.484Z,50.80
2018-11-03T08:01:56.084Z,50.20
2018-11-03T08:04:23.697Z,49.90
2018-11-03T08:06:51.278Z,49.90
2018-11-03T08:09:18.972Z,49.80
2018-11-03T08:11:46.526Z,49.80
2018-11-03T08:14:14.204Z,49.80
2018-11-03T08:16:41.781Z,49.70
2018-11-03T08:19:09.578Z,49.70
2018-11-03T08:21:37.228Z,49.80
2018-11-03T08:24:05.076Z,49.70
2018-11-03T08:26:32.598Z,49.60
2018-11-03T08:29:00.159Z,49.70
2018-11-03T08:31:27.813Z,49.70
2018-11-03T08:33:55.399Z,50.10
2018-11-03T08:36:23.200Z,50.20
2018-11-03T08:38:50.826Z,50.30
2018-11-03T08:41:20.065Z,50.20
2018-11-03T08:43:47.685Z,50.10
2018-11-03T08:46:15.311Z,50.90
2018-11-03T08:48:43.042Z,50.30
2018-11-03T08:51:10.698Z,50.90
2018-11-03T08:53:38.366Z,50.50
2018-11-03T08:56:06.018Z,50.40
2018-11-03T08:58:33.605Z,50.60
2018-11-03T09:01:01.183Z,50.40
2018-11-03T09:03:28.986Z,50.50
2018-11-03T09:05:56.743Z,50.30
2018-11-03T09:08:24.327Z,50.20
2018-11-03T09:10:51.959Z,50.20
2018-11-03T09:13:19.585Z,50.30
2018-11-03T09:15:47.160Z,50.20
2018-11-03T09:18:14.846Z,49.90
2018-11-03T09:20:42.536Z,50.10
2018-11-03T09:23:10.116Z,50.10
2018-11-03T09:25:37.761Z,49.80
2018-11-03T09:28:05.375Z,49.80
2018-11-03T09:30:32.960Z,49.80
2018-11-03T09:33:00.552Z,49.80
2018-11-03T09:35:28.295Z,49.80
2018-11-03T09:37:55.905Z,50.50
2018-11-03T09:40:23.550Z,49.80
2018-11-03T09:42:51.178Z,49.90
2018-11-03T09:45:18.736Z,49.80
2018-11-03T09:47:46.326Z,50.10
2018-11-03T09:50:15.056Z,50.30
2018-11-03T09:52:43.242Z,50.50
2018-11-03T09:55:14.515Z,50.70
2018-11-03T09:57:42.547Z,50.70
2018-11-03T10:00:11.878Z,50.40
2018-11-03T10:02:40.267Z,50.50
2018-11-03T10:05:08.501Z,50.70
2018-11-03T10:07:36.357Z,50.70
2018-11-03T10:10:04.419Z,50.70
2018-11-03T10:12:32.018Z,50.50
2018-11-03T10:15:00.079Z,50.50
2018-11-03T10:17:27.805Z,50.40
2018-11-03T10:19:55.468Z,50.40
2018-11-03T10:22:23.235Z,50.30
2018-11-03T10:24:50.775Z,50.30
2018-11-03T10:27:18.358Z,50.10
2018-11-03T10:29:46.328Z,50.10
2018-11-03T10:32:14.044Z,50.00
2018-11-03T10:34:41.918Z,50.00
2018-11-03T10:37:09.771Z,49.30
2018-11-03T10:39:37.458Z,49.90
2018-11-03T10:42:05.316Z,50.10
2018-11-03T10:44:33.160Z,49.90
2018-11-03T10:47:00.912Z,49.70
2018-11-03T10:49:28.861Z,49.60
2018-11-03T10:52:00.528Z,50.10
2018-11-03T10:54:29.191Z,50.00
2018-11-03T10:56:56.814Z,49.50
2018-11-03T10:59:24.551Z,49.50
2018-11-03T11:01:57.915Z,49.50
2018-11-03T11:04:31.114Z,49.50
2018-11-03T11:07:04.328Z,49.50
2018-11-03T11:10:35.129Z,49.50
2018-11-03T11:13:08.140Z,49.50
2018-11-03T11:15:36.086Z,49.50
2018-11-03T11:18:03.986Z,49.70
2018-11-03T11:20:31.815Z,49.80
2018-11-03T11:22:59.519Z,50.00
2018-11-03T11:25:27.173Z,50.20
2018-11-03T11:27:54.670Z,50.10
2018-11-03T11:30:22.276Z,50.10
2018-11-03T11:32:49.951Z,50.00
2018-11-03T11:35:17.537Z,49.90
2018-11-03T11:37:45.234Z,49.80
2018-11-03T11:40:12.924Z,49.80
2018-11-03T11:42:40.502Z,49.90
2018-11-03T11:45:08.032Z,50.20
2018-11-03T11:47:36.464Z,50.40
2018-11-03T11:50:04.367Z,50.10
2018-11-03T11:52:31.982Z,50.20
2018-11-03T11:54:59.681Z,50.40
2018-11-03T11:57:27.167Z,50.30
2018-11-03T11:59:54.789Z,50.10
2018-11-03T12:02:22.748Z,50.10
2018-11-03T12:04:50.217Z,50.00
2018-11-03T12:07:17.812Z,50.30
2018-11-03T12:09:45.919Z,50.80
2018-11-03T12:12:13.558Z,51.20
2018-11-03T12:14:41.090Z,51.20
2018-11-03T12:17:08.670Z,52.20
2018-11-03T12:19:36.273Z,52.20
2018-11-03T12:22:03.861Z,52.30
2018-11-03T12:24:31.594Z,52.10
2018-11-03T12:26:59.162Z,52.60
2018-11-03T12:29:26.838Z,52.10
2018-11-03T12:31:54.718Z,52.10
2018-11-03T12:34:22.307Z,52.00
2018-11-03T12:36:49.917Z,52.20
2018-11-03T12:39:17.497Z,52.00
2018-11-03T12:41:45.188Z,51.90
2018-11-03T12:44:12.772Z,51.80
2018-11-03T12:46:40.551Z,51.80
2018-11-03T12:49:08.146Z,51.80
2018-11-03T12:51:35.736Z,51.70
2018-11-03T12:54:04.227Z,51.80
2018-11-03T12:56:31.828Z,52.00
2018-11-03T12:58:59.413Z,52.00
2018-11-03T13:01:27.016Z,51.90
2018-11-03T13:03:54.814Z,51.80
2018-11-03T13:06:23.094Z,51.90
2018-11-03T13:08:51.073Z,51.80
2018-11-03T13:11:18.674Z,51.60
2018-11-03T13:13:46.244Z,52.30
2018-11-03T13:16:13.808Z,51.40
2018-11-03T13:18:41.587Z,51.40
2018-11-03T13:21:09.259Z,51.60
2018-11-03T13:23:36.801Z,51.30
2018-11-03T13:26:05.118Z,51.30
2018-11-03T13:28:32.896Z,51.20
2018-11-03T13:31:00.531Z,51.10
2018-11-03T13:33:28.113Z,51.00
2018-11-03T13:35:55.680Z,50.80
2018-11-03T13:38:23.314Z,50.90
2018-11-03T13:40:50.958Z,50.80
2018-11-03T13:43:18.492Z,50.70
2018-11-03T13:45:46.106Z,50.60
2018-11-03T13:48:13.675Z,50.60
2018-11-03T13:50:41.236Z,50.90
2018-11-03T13:53:08.794Z,50.60
2018-11-03T13:55:36.679Z,50.90
2018-11-03T13:58:04.266Z,51.20
2018-11-03T14:00:31.838Z,51.00
2018-11-03T14:02:59.446Z,50.80
2018-11-03T14:05:27.298Z,50.60
2018-11-03T14:07:54.879Z,50.60
2018-11-03T14:10:23.982Z,51.20
2018-11-03T14:12:51.753Z,50.60
2018-11-03T14:15:19.441Z,50.50
2018-11-03T14:17:47.114Z,50.60
2018-11-03T14:20:15.621Z,50.80
2018-11-03T14:22:43.808Z,50.80
2018-11-03T14:25:12.921Z,50.80
2018-11-03T14:27:41.144Z,50.60
2018-11-03T14:30:09.584Z,51.10
2018-11-03T14:32:37.385Z,50.50
2018-11-03T14:35:05.419Z,50.30
2018-11-03T14:37:33.437Z,50.20
2018-11-03T14:40:01.047Z,50.20
2018-11-03T14:42:28.640Z,50.20
2018-11-03T14:44:56.415Z,50.10
2018-11-03T14:47:26.320Z,50.00
2018-11-03T14:49:53.959Z,50.00
2018-11-03T14:52:21.569Z,49.90
2018-11-03T14:54:50.551Z,49.90
2018-11-03T14:57:18.624Z,49.80
2018-11-03T14:59:46.201Z,49.80
2018-11-03T15:02:14.090Z,49.90
2018-11-03T15:04:41.688Z,49.70
2018-11-03T15:07:09.393Z,49.70
2018-11-03T15:09:37.107Z,49.70
2018-11-03T15:12:04.954Z,49.70
2018-11-03T15:14:32.570Z,49.70
2018-11-03T15:17:00.183Z,49.90
2018-11-03T15:19:27.960Z,49.80
2018-11-03T15:21:55.754Z,49.90
2018-11-03T15:24:24.784Z,49.90
2018-11-03T15:26:52.470Z,49.90
2018-11-03T15:29:20.054Z,50.00
2018-11-03T15:31:47.712Z,50.00
2018-11-03T15:34:15.297Z,50.00
2018-11-03T15:36:43.020Z,50.00
2018-11-03T15:39:10.741Z,50.60
2018-11-03T15:41:38.308Z,50.00
2018-11-03T15:44:05.952Z,50.10
2018-11-03T15:46:33.692Z,50.60
2018-11-03T15:49:01.402Z,50.50
2018-11-03T15:51:29.025Z,50.50
2018-11-03T15:53:57.069Z,50.30
2018-11-03T15:56:24.670Z,50.30
2018-11-03T15:58:52.252Z,50.20
2018-11-03T16:01:19.881Z,50.00
2018-11-03T16:03:47.465Z,50.50
2018-11-03T16:06:15.217Z,50.30
2018-11-03T16:08:42.858Z,50.00
2018-11-03T16:11:10.438Z,49.90
2018-11-03T16:13:38.017Z,49.80
2018-11-03T16:16:05.647Z,50.00
2018-11-03T16:18:33.231Z,49.70
2018-11-03T16:21:01.234Z,49.70
2018-11-03T16:23:29.258Z,50.10
2018-11-03T16:25:56.960Z,50.30
2018-11-03T16:28:24.579Z,50.00
2018-11-03T16:30:52.150Z,49.80
2018-11-03T16:33:19.915Z,49.90
2018-11-03T16:35:47.550Z,50.20
2018-11-03T16:38:15.425Z,50.00
2018-11-03T16:40:43.009Z,50.10
2018-11-03T16:43:10.781Z,50.20
2018-11-03T16:45:38.594Z,50.00
2018-11-03T16:48:06.227Z,49.90
2018-11-03T16:50:34.011Z,49.90
2018-11-03T16:53:01.598Z,50.00
2018-11-03T16:55:29.920Z,50.40
2018-11-03T16:57:57.442Z,50.20
2018-11-03T17:00:25.021Z,50.20
2018-11-03T17:02:52.830Z,50.10
2018-11-03T17:05:20.451Z,50.00
2018-11-03T17:07:48.034Z,50.00
2018-11-03T17:10:16.207Z,50.10
2018-11-03T17:12:45.154Z,50.30
2018-11-03T17:15:13.139Z,50.20
2018-11-03T17:17:40.791Z,50.10
2018-11-03T17:20:08.788Z,49.90
2018-11-03T17:22:36.578Z,49.70
2018-11-03T17:25:04.688Z,49.70
2018-11-03T17:27:32.288Z,49.70
2018-11-03T17:30:00.087Z,49.80
2018-11-03T17:32:27.721Z,50.10
2018-11-03T17:34:55.349Z,49.90
2018-11-03T17:37:22.949Z,49.90
2018-11-03T17:39:50.547Z,49.80
2018-11-03T17:42:18.130Z,49.90
2018-11-03T17:44:45.724Z,49.90
2018-11-03T17:47:13.328Z,49.80
2018-11-03T17:49:40.917Z,49.90
2018-11-03T17:52:08.521Z,49.90
2018-11-03T17:54:36.193Z,49.90
2018-11-03T17:57:03.760Z,50.00
2018-11-03T17:59:31.393Z,50.00
2018-11-03T18:01:58.988Z,50.00
2018-11-03T18:04:27.244Z,50.00
2018-11-03T18:06:54.822Z,50.00
2018-11-03T18:09:22.395Z,50.00
2018-11-03T18:11:50.030Z,50.00
2018-11-03T18:14:17.616Z,50.00
2018-11-03T18:16:45.201Z,50.00
2018-11-03T18:19:12.805Z,50.00
2018-11-03T18:21:40.547Z,50.00
2018-11-03T18:24:08.161Z,50.00
2018-11-03T18:26:35.801Z,50.40
2018-11-03T18:29:03.402Z,50.00
2018-11-03T18:31:30.971Z,50.00
2018-11-03T18:33:58.567Z,50.30
2018-11-03T18:36:26.377Z,50.50
2018-11-03T18:38:53.960Z,50.50
2018-11-03T18:41:21.634Z,50.60
2018-11-03T18:43:49.205Z,50.70
2018-11-03T18:46:16.789Z,50.90
2018-11-03T18:48:44.397Z,50.80
2018-11-03T18:51:11.992Z,50.60
2018-11-03T18:53:39.563Z,50.50
2018-11-03T18:56:07.151Z,50.50
2018-11-03T18:58:34.763Z,50.40
2018-11-03T19:01:02.960Z,50.40
2018-11-03T19:03:30.548Z,50.30
2018-11-03T19:05:58.292Z,50.30
2018-11-03T19:08:25.875Z,50.30
2018-11-03T19:10:53.512Z,50.20
2018-11-03T19:13:21.087Z,50.30
2018-11-03T19:15:48.656Z,50.30
2018-11-03T19:18:16.216Z,50.30
2018-11-03T19:20:43.779Z,50.30
2018-11-03T19:23:11.375Z,50.30
2018-11-03T19:25:38.967Z,50.30
2018-11-03T19:28:06.560Z,50.30
2018-11-03T19:30:34.133Z,50.30
2018-11-03T19:33:01.732Z,50.30
2018-11-03T19:35:29.520Z,50.20
2018-11-03T19:37:57.108Z,50.20
2018-11-03T19:40:24.712Z,50.20
2018-11-03T19:42:52.355Z,50.20
2018-11-03T19:45:19.984Z,50.20
2018-11-03T19:47:47.530Z,50.10
2018-11-03T19:50:15.096Z,50.20
2018-11-03T19:52:42.689Z,50.10
2018-11-03T19:55:10.379Z,50.10
2018-11-03T19:57:37.961Z,50.10
2018-11-03T20:00:07.033Z,50.10
2018-11-03T20:02:34.651Z,50.50
2018-11-03T20:05:02.209Z,50.70
2018-11-03T20:07:29.898Z,50.70
2018-11-03T20:09:57.581Z,50.80
2018-11-03T20:12:25.190Z,50.90
2018-11-03T20:14:52.780Z,51.10
2018-11-03T20:17:20.364Z,51.20
2018-11-03T20:19:47.946Z,51.30
2018-11-03T20:22:15.511Z,51.40
2018-11-03T20:24:43.092Z,51.20
2018-11-03T20:27:10.728Z,51.30
2018-11-03T20:29:38.368Z,51.30
2018-11-03T20:32:05.955Z,51.40
2018-11-03T20:34:34.006Z,51.20
2018-11-03T20:37:01.892Z,51.20
2018-11-03T20:39:30.277Z,51.20
2018-11-03T20:41:57.949Z,51.30
2018-11-03T20:44:25.635Z,51.20
2018-11-03T20:46:53.289Z,51.20
2018-11-03T20:49:21.031Z,51.30
2018-11-03T20:51:48.957Z,51.20
2018-11-03T20:54:16.759Z,51.20
2018-11-03T20:56:44.538Z,51.20
2018-11-03T20:59:12.276Z,51.20
2018-11-03T21:01:40.509Z,51.20
2018-11-03T21:04:08.445Z,51.20
2018-11-03T21:06:36.488Z,51.20
2018-11-03T21:09:05.023Z,51.40
2018-11-03T21:11:32.744Z,51.40
2018-11-03T21:14:00.681Z,52.10
2018-11-03T21:16:28.682Z,51.40
2018-11-03T21:18:56.603Z,51.50
2018-11-03T21:21:24.203Z,51.40
2018-11-03T21:23:51.811Z,51.50
2018-11-03T21:26:19.587Z,51.50
2018-11-03T21:28:47.198Z,51.60
2018-11-03T21:31:14.943Z,51.70
2018-11-03T21:33:42.537Z,51.60
2018-11-03T21:36:10.093Z,51.60
2018-11-03T21:38:37.741Z,51.70
2018-11-03T21:41:05.577Z,51.70
2018-11-03T21:43:33.141Z,51.70
2018-11-03T21:46:00.791Z,51.60
2018-11-03T21:48:28.381Z,51.70
2018-11-03T21:50:55.931Z,51.70
2018-11-03T21:53:23.566Z,51.60
2018-11-03T21:55:51.248Z,51.60
2018-11-03T21:58:18.806Z,52.30
2018-11-03T22:00:46.380Z,51.50
2018-11-03T22:03:13.960Z,51.50
2018-11-03T22:05:41.511Z,51.50
2018-11-03T22:08:09.254Z,51.50
2018-11-03T22:10:36.967Z,51.40
2018-11-03T22:13:04.528Z,51.40
2018-11-03T22:15:32.098Z,51.40
2018-11-03T22:17:59.662Z,51.40
2018-11-03T22:20:27.232Z,51.50
2018-11-03T22:22:54.806Z,51.50
2018-11-03T22:25:22.363Z,51.50
2018-11-03T22:27:49.977Z,51.50
2018-11-03T22:30:17.538Z,51.40
2018-11-03T22:32:45.109Z,51.50
2018-11-03T22:35:12.677Z,51.50
2018-11-03T22:37:40.671Z,51.40
2018-11-03T22:40:08.592Z,51.50
2018-11-03T22:42:36.162Z,51.40
2018-11-03T22:45:03.804Z,51.50
2018-11-03T22:47:31.386Z,51.50
2018-11-03T22:49:58.972Z,51.40
2018-11-03T22:52:26.540Z,51.50
2018-11-03T22:54:54.118Z,51.60
2018-11-03T22:57:21.738Z,52.00
2018-11-03T22:59:49.320Z,51.50
2018-11-03T23:02:16.906Z,51.50
2018-11-03T23:04:44.487Z,51.60
2018-11-03T23:07:13.243Z,51.50
2018-11-03T23:09:40.962Z,51.50
2018-11-03T23:12:08.535Z,51.50
2018-11-03T23:14:36.350Z,51.40
2018-11-03T23:17:03.963Z,51.40
2018-11-03T23:19:31.561Z,51.40
2018-11-03T23:21:59.184Z,51.40
2018-11-03T23:24:26.818Z,51.40
2018-11-03T23:26:55.525Z,51.40
2018-11-03T23:29:23.120Z,51.40
2018-11-03T23:31:50.718Z,51.40
2018-11-03T23:34:18.300Z,51.50
2018-11-03T23:36:46.002Z,51.40
2018-11-03T23:39:13.583Z,51.50
2018-11-03T23:41:41.357Z,51.40
2018-11-03T23:44:09.371Z,51.50
2018-11-03T23:46:37.360Z,51.50
2018-11-03T23:49:04.937Z,51.50
2018-11-03T23:51:32.811Z,51.40
2018-11-03T23:54:00.414Z,51.50
2018-11-03T23:56:28.007Z,51.40
2018-11-03T23:58:55.591Z,51.40
